Time;durP1;ratioP1;P1;durP2;ratioP2;P2;SDS_P1;SDS_P2;PMS_P1;PMS_P2;Temp;Humidity;BMP_temperature;BMP_pressure;BME280_temperature;BME280_humidity;BME280_pressure;Samples;Min_cycle;Max_cycle;Signal;HPM_P1;HPM_P2
2022/01/12 00:00:50;;;;;;;16.00;9.18;;;1.80;99.90;;;;;;5068769;28;20419;-65
2022/01/12 00:03:16;;;;;;;16.73;9.30;;;1.70;99.90;;;;;;5069098;28;20421;-65
2022/01/12 00:05:43;;;;;;;19.23;9.67;;;2.60;99.90;;;;;;5068348;28;20412;-66
2022/01/12 00:08:08;;;;;;;17.58;9.00;;;1.70;99.90;;;;;;5069498;28;20391;-65
2022/01/12 00:10:35;;;;;;;16.05;8.30;;;1.70;99.90;;;;;;5067997;28;20380;-65
2022/01/12 00:13:01;;;;;;;16.00;9.55;;;1.70;99.90;;;;;;5069268;28;20467;-64
2022/01/12 00:15:26;;;;;;;19.88;9.65;;;1.50;99.90;;;;;;5068138;28;20478;-58
2022/01/12 00:17:52;;;;;;;16.77;10.00;;;1.50;99.90;;;;;;5069066;28;20470;-65
2022/01/12 00:20:18;;;;;;;17.27;9.70;;;1.40;99.90;;;;;;5069198;28;20912;-65
2022/01/12 00:22:44;;;;;;;17.73;10.10;;;1.30;99.90;;;;;;5068405;28;20827;-65
2022/01/12 00:25:44;;;;;;;18.17;10.00;;;1.30;99.90;;;;;;5068957;28;20410;-65
2022/01/12 00:33:25;;;;;;;18.48;10.10;;;1.10;99.90;;;;;;5068359;28;20371;-59
2022/01/12 00:35:56;;;;;;;16.90;9.03;;;1.00;99.90;;;;;;5068572;28;20384;-65
2022/01/12 00:38:25;;;;;;;16.58;9.40;;;1.00;99.90;;;;;;5069432;28;20383;-62
2022/01/12 00:40:53;;;;;;;20.90;10.23;;;2.70;99.90;;;;;;5068490;28;20854;-64
2022/01/12 00:43:20;;;;;;;19.20;10.23;;;1.00;99.90;;;;;;5068898;28;20380;-64
2022/01/12 00:45:47;;;;;;;17.25;10.48;;;1.00;99.90;;;;;;5068057;28;20403;-65
2022/01/12 00:48:17;;;;;;;18.88;10.43;;;1.00;99.90;;;;;;5071008;28;20392;-65
2022/01/12 00:50:43;;;;;;;19.10;10.77;;;1.00;99.90;;;;;;5072255;28;20687;-65
2022/01/12 00:53:10;;;;;;;20.15;10.50;;;1.00;99.90;;;;;;5072448;28;20422;-65
2022/01/12 00:55:36;;;;;;;17.90;10.70;;;2.60;99.90;;;;;;5071880;28;20387;-64
2022/01/12 00:58:02;;;;;;;19.63;10.75;;;1.50;99.90;;;;;;5072415;28;20394;-64
2022/01/12 01:00:29;;;;;;;20.02;11.20;;;1.70;99.90;;;;;;5071682;28;20800;-64
2022/01/12 01:02:56;;;;;;;20.65;10.80;;;0.70;99.90;;;;;;5072531;28;20843;-62
2022/01/12 01:05:24;;;;;;;19.02;11.05;;;1.40;99.90;;;;;;5072241;28;20496;-64
2022/01/12 01:07:51;;;;;;;17.15;10.20;;;0.80;99.90;;;;;;5071422;28;20395;-64
2022/01/12 01:10:38;;;;;;;20.13;10.60;;;0.70;99.90;;;;;;5071829;28;20406;-64
2022/01/12 01:13:04;;;;;;;19.48;10.80;;;0.60;99.90;;;;;;5071917;28;20387;-64
2022/01/12 01:26:44;;;;;;;17.50;9.00;;;0.40;99.90;;;;;;5070984;28;20704;-64
2022/01/12 01:29:10;;;;;;;18.02;9.23;;;0.50;99.90;;;;;;5072120;28;20392;-64
2022/01/12 01:31:36;;;;;;;18.17;9.65;;;0.50;99.90;;;;;;5071043;28;20418;-64
2022/01/12 01:34:12;;;;;;;17.95;10.30;;;0.70;99.90;;;;;;5071784;28;20395;-63
2022/01/12 01:36:47;;;;;;;20.53;10.17;;;0.70;99.90;;;;;;5071180;28;20385;-64
2022/01/12 01:39:17;;;;;;;18.20;10.00;;;0.70;99.90;;;;;;5071523;28;20437;-64
2022/01/12 01:41:56;;;;;;;17.70;9.70;;;0.60;99.90;;;;;;5070543;28;20401;-64
2022/01/12 01:54:47;;;;;;;16.75;9.50;;;0.50;99.90;;;;;;5070653;28;20421;-63
2022/01/12 01:57:13;;;;;;;15.43;9.50;;;0.40;99.90;;;;;;5070012;28;20399;-63
2022/01/12 01:59:39;;;;;;;20.35;9.80;;;2.00;99.90;;;;;;5059450;28;20392;-65
2022/01/12 02:02:06;;;;;;;17.73;10.00;;;0.50;99.90;;;;;;5070120;28;20386;-63
2022/01/12 02:04:31;;;;;;;17.42;9.32;;;1.30;99.90;;;;;;5070139;28;20465;-64
2022/01/12 02:06:58;;;;;;;16.07;9.07;;;0.60;99.90;;;;;;5071326;28;20408;-64
2022/01/12 02:09:25;;;;;;;16.98;10.00;;;0.60;99.90;;;;;;5070804;28;20427;-58
2022/01/12 02:11:51;;;;;;;20.13;10.85;;;2.00;99.90;;;;;;5070629;28;20376;-63
2022/01/12 02:14:17;;;;;;;18.67;9.90;;;0.60;99.90;;;;;;5070939;28;20399;-63
2022/01/12 02:16:58;;;;;;;17.48;10.18;;;0.60;99.90;;;;;;5069677;28;20745;-63
2022/01/12 02:36:10;;;;;;;20.70;11.15;;;0.30;99.90;;;;;;5070532;28;20379;-63
2022/01/12 02:41:23;;;;;;;20.33;10.93;;;0.20;99.90;;;;;;5028913;28;20383;-63
2022/01/12 02:54:46;;;;;;;19.15;11.15;;;0.30;99.90;;;;;;5069389;28;20741;-63
2022/01/12 02:57:12;;;;;;;20.45;10.48;;;1.60;99.90;;;;;;5070016;28;20399;-63
2022/01/12 02:59:45;;;;;;;19.35;10.52;;;1.10;99.90;;;;;;5069809;28;20384;-63
2022/01/12 03:02:21;;;;;;;19.10;10.90;;;0.30;99.90;;;;;;5070106;28;20363;-63
2022/01/12 03:07:40;;;;;;;21.08;10.70;;;0.30;99.90;;;;;;5052584;28;20826;-61
2022/01/12 03:10:09;;;;;;;18.93;10.50;;;0.30;99.90;;;;;;5069218;28;20714;-63
2022/01/12 03:12:44;;;;;;;20.40;11.00;;;0.20;99.90;;;;;;5068758;28;20384;-63
2022/01/12 03:15:10;;;;;;;18.00;11.40;;;0.10;99.90;;;;;;5069654;28;20451;-63
2022/01/12 03:17:36;;;;;;;21.38;11.95;;;0.10;99.90;;;;;;5068869;28;20802;-62
2022/01/12 03:20:06;;;;;;;20.95;11.32;;;0.10;99.90;;;;;;5069894;28;20438;-63
2022/01/12 03:22:32;;;;;;;21.67;11.50;;;0.20;99.90;;;;;;5051063;28;20441;-63
2022/01/12 03:24:58;;;;;;;21.05;12.07;;;0.20;99.90;;;;;;5069849;28;20412;-63
2022/01/12 03:27:26;;;;;;;19.90;12.07;;;0.20;99.90;;;;;;5069874;28;20376;-63
2022/01/12 03:29:55;;;;;;;17.10;11.20;;;0.20;99.90;;;;;;5069055;28;20430;-63
2022/01/12 03:32:29;;;;;;;21.23;11.50;;;0.10;99.90;;;;;;5069377;28;20479;-63
2022/01/12 03:35:06;;;;;;;18.85;11.73;;;0.10;99.90;;;;;;5051618;28;20438;-63
2022/01/12 03:37:55;;;;;;;19.15;11.15;;;0.10;99.90;;;;;;5068968;28;20453;-63
2022/01/12 03:40:21;;;;;;;18.80;11.02;;;0.00;99.90;;;;;;5068862;28;20466;-59
2022/01/12 03:42:47;;;;;;;20.60;11.50;;;-0.10;99.90;;;;;;5068049;28;20382;-63
2022/01/12 03:45:14;;;;;;;20.85;11.73;;;0.00;99.90;;;;;;5068800;28;20876;-63
2022/01/12 03:47:40;;;;;;;22.08;11.40;;;0.00;99.90;;;;;;5067852;28;20802;-60
2022/01/12 03:50:06;;;;;;;20.90;11.87;;;0.10;99.90;;;;;;5068954;28;20400;-63
2022/01/12 03:52:32;;;;;;;20.35;11.95;;;0.00;99.90;;;;;;5067216;28;20467;-63
2022/01/12 03:54:57;;;;;;;19.73;11.70;;;0.10;99.90;;;;;;5069232;28;20394;-63
2022/01/12 03:57:23;;;;;;;19.45;11.50;;;-0.10;99.90;;;;;;5068681;28;20384;-63
2022/01/12 03:59:49;;;;;;;19.63;10.80;;;-0.10;99.90;;;;;;5050038;28;20463;-63
2022/01/12 04:02:15;;;;;;;20.03;11.90;;;-0.10;99.90;;;;;;5068704;28;20490;-63
2022/01/12 04:05:05;;;;;;;21.95;12.25;;;1.00;99.90;;;;;;5067907;28;20545;-63
2022/01/12 04:10:10;;;;;;;21.70;12.10;;;-0.10;99.90;;;;;;5068591;28;20465;-63
2022/01/12 04:12:36;;;;;;;19.02;11.38;;;-0.20;99.90;;;;;;5065179;28;20422;-63
2022/01/12 04:15:02;;;;;;;20.45;11.45;;;-0.20;99.90;;;;;;5045403;28;20929;-62
2022/01/12 04:17:27;;;;;;;19.55;11.60;;;-0.30;99.90;;;;;;5047598;28;20389;-57
2022/01/12 04:19:53;;;;;;;19.93;11.17;;;-0.30;99.90;;;;;;5048689;28;20681;-63
2022/01/12 04:25:03;;;;;;;21.58;11.55;;;0.80;99.90;;;;;;5049583;28;20424;-63
2022/01/12 04:27:29;;;;;;;17.93;11.00;;;-0.20;99.90;;;;;;5051909;28;20409;-57
2022/01/12 04:29:55;;;;;;;20.37;11.67;;;-0.20;99.90;;;;;;5052495;28;20385;-63
2022/01/12 04:32:23;;;;;;;19.20;11.10;;;-0.30;99.90;;;;;;5052629;28;20396;-63
2022/01/12 04:34:48;;;;;;;20.40;11.45;;;-0.30;99.90;;;;;;5051678;28;20850;-63
2022/01/12 04:37:14;;;;;;;21.40;11.90;;;0.00;99.90;;;;;;5052419;28;20468;-63
2022/01/12 04:39:40;;;;;;;19.47;11.70;;;-0.30;99.90;;;;;;5051996;28;20378;-63
2022/01/12 04:42:05;;;;;;;18.67;10.80;;;-0.30;99.90;;;;;;5052443;28;20728;-62
2022/01/12 04:44:31;;;;;;;22.17;11.20;;;-0.30;99.90;;;;;;5051230;28;20448;-57
2022/01/12 04:47:06;;;;;;;21.42;11.20;;;-0.30;99.90;;;;;;5052079;28;20389;-62
2022/01/12 04:52:03;;;;;;;20.20;11.18;;;-0.40;99.90;;;;;;5052305;28;20459;-63
2022/01/12 04:54:29;;;;;;;19.52;10.77;;;-0.50;99.90;;;;;;5051715;28;20436;-57
2022/01/12 04:56:55;;;;;;;19.25;10.77;;;0.30;99.90;;;;;;5051790;28;20899;-63
2022/01/12 04:59:20;;;;;;;18.13;10.60;;;-0.50;99.90;;;;;;5050931;28;20389;-63
2022/01/12 05:01:56;;;;;;;20.23;11.03;;;-0.50;99.90;;;;;;5051195;28;20412;-63
2022/01/12 05:07:24;;;;;;;20.48;11.13;;;-0.50;99.90;;;;;;5052149;28;20377;-63
2022/01/12 05:12:44;;;;;;;23.73;11.70;;;0.90;99.90;;;;;;5051516;28;21011;-63
2022/01/12 05:12:55;;;;;;;22.10;11.32;;;-0.50;99.90;;;;;;5046586;28;20452;-63
2022/01/12 05:15:28;;;;;;;22.02;11.57;;;-0.50;99.90;;;;;;5054553;28;20464;-63
2022/01/12 05:17:54;;;;;;;23.25;11.60;;;-0.30;99.90;;;;;;5071192;28;20391;-62
2022/01/12 05:20:23;;;;;;;22.77;12.70;;;0.80;99.90;;;;;;5053230;28;20383;-64
2022/01/12 05:22:49;;;;;;;20.92;11.90;;;-0.40;99.90;;;;;;5063059;28;20488;-63
2022/01/12 05:25:17;;;;;;;24.58;12.45;;;-0.40;99.90;;;;;;5050602;28;20500;-62
2022/01/12 05:27:44;;;;;;;23.33;12.73;;;-0.40;99.90;;;;;;5049847;28;20527;-63
2022/01/12 05:30:10;;;;;;;23.55;12.90;;;-0.40;99.90;;;;;;5050283;28;20488;-64
2022/01/12 05:32:36;;;;;;;21.98;12.45;;;-0.40;99.90;;;;;;5049515;28;20851;-61
2022/01/12 05:35:04;;;;;;;22.50;12.60;;;-0.40;99.90;;;;;;5050550;28;20439;-61
2022/01/12 05:37:30;;;;;;;22.85;12.80;;;-0.50;99.90;;;;;;5050051;28;20401;-58
2022/01/12 05:39:56;;;;;;;25.37;13.30;;;-0.50;99.90;;;;;;5059231;28;20404;-62
2022/01/12 05:42:22;;;;;;;25.33;13.20;;;-0.40;99.90;;;;;;5050096;28;20382;-62
2022/01/12 05:44:48;;;;;;;23.52;12.82;;;-0.40;99.90;;;;;;5030902;28;20982;-62
2022/01/12 05:47:31;;;;;;;23.30;12.57;;;-0.50;99.90;;;;;;5051678;28;20488;-62
2022/01/12 05:49:57;;;;;;;24.05;12.55;;;-0.50;99.90;;;;;;5049731;28;20853;-62
2022/01/12 05:52:23;;;;;;;23.00;13.20;;;-0.50;99.90;;;;;;5050202;28;20850;-62
2022/01/12 05:54:48;;;;;;;21.92;12.50;;;-0.50;99.90;;;;;;5058219;28;20406;-62
2022/01/12 05:57:14;;;;;;;21.13;12.00;;;0.70;99.90;;;;;;5054417;28;20403;-61
2022/01/12 05:59:39;;;;;;;23.25;13.07;;;0.60;99.90;;;;;;5068665;28;20915;-62
2022/01/12 06:02:05;;;;;;;23.92;13.10;;;-0.50;99.90;;;;;;5069667;28;20380;-60
2022/01/12 06:04:31;;;;;;;23.77;12.23;;;-0.50;99.90;;;;;;5069214;28;20419;-58
2022/01/12 06:06:57;;;;;;;23.30;12.43;;;-0.50;99.90;;;;;;5069827;28;20375;-63
2022/01/12 06:09:23;;;;;;;65.55;29.65;;;-0.40;99.90;;;;;;5069708;28;20383;-60
2022/01/12 06:11:49;;;;;;;24.15;13.25;;;-0.40;99.90;;;;;;5051067;28;20421;-63
2022/01/12 06:14:18;;;;;;;27.43;13.97;;;0.80;99.90;;;;;;5051779;28;20399;-63
2022/01/12 06:16:56;;;;;;;35.15;18.48;;;-0.40;99.90;;;;;;5106531;27;20397;-63
2022/01/12 06:19:22;;;;;;;27.48;14.75;;;-0.50;99.90;;;;;;5106777;28;20408;-61
2022/01/12 06:21:48;;;;;;;30.33;16.80;;;-0.50;99.90;;;;;;5106123;28;20377;-63
2022/01/12 06:24:14;;;;;;;26.58;16.60;;;-0.60;99.90;;;;;;5106567;28;20834;-62
2022/01/12 06:26:40;;;;;;;23.25;13.57;;;0.70;99.90;;;;;;5104572;28;20896;-62
2022/01/12 06:31:38;;;;;;;21.05;12.90;;;-0.70;99.90;;;;;;5105585;28;20392;-61
2022/01/12 06:34:04;;;;;;;24.83;11.63;;;0.30;99.90;;;;;;5106921;28;20385;-63
2022/01/12 06:36:30;;;;;;;21.17;11.77;;;-0.80;99.90;;;;;;5138784;27;20409;-63
2022/01/12 06:38:55;;;;;;;20.38;12.60;;;-0.70;99.90;;;;;;5105860;28;20430;-63
2022/01/12 06:41:21;;;;;;;20.10;12.80;;;-0.70;99.90;;;;;;5106735;28;20724;-64
2022/01/12 06:43:48;;;;;;;17.95;10.93;;;-0.70;99.90;;;;;;5105959;28;20376;-63
2022/01/12 06:46:17;;;;;;;21.58;11.75;;;-0.90;99.90;;;;;;5106124;28;20931;-63
2022/01/12 06:48:43;;;;;;;23.48;11.70;;;-1.00;99.90;;;;;;5105867;28;20385;-63
2022/01/12 06:51:09;;;;;;;22.83;12.80;;;-1.10;99.90;;;;;;5106786;28;20397;-62
2022/01/12 06:53:34;;;;;;;22.60;12.90;;;-1.00;99.90;;;;;;5104452;28;20734;-59
2022/01/12 06:56:00;;;;;;;20.97;13.13;;;-0.90;99.90;;;;;;5106430;28;20413;-63
2022/01/12 06:58:26;;;;;;;22.00;12.60;;;-0.90;99.90;;;;;;5106587;28;20369;-62
2022/01/12 07:00:52;;;;;;;22.17;12.80;;;-0.90;99.90;;;;;;5105449;28;20387;-63
2022/01/12 07:03:18;;;;;;;22.20;12.20;;;-0.90;99.90;;;;;;5104579;28;20405;-63
2022/01/12 07:05:43;;;;;;;23.98;13.20;;;-0.90;99.90;;;;;;5097378;28;20394;-63
2022/01/12 07:08:09;;;;;;;21.15;12.50;;;0.40;99.90;;;;;;5106754;28;20481;-62
2022/01/12 07:10:35;;;;;;;26.10;13.40;;;-0.70;99.90;;;;;;5105119;28;20394;-57
2022/01/12 07:13:00;;;;;;;23.43;12.90;;;-0.70;99.90;;;;;;5105918;28;20492;-63
2022/01/12 07:15:26;;;;;;;24.30;12.45;;;-0.70;99.90;;;;;;5105546;28;20899;-63
2022/01/12 07:17:52;;;;;;;21.42;13.20;;;-0.80;99.90;;;;;;5105296;28;20400;-63
2022/01/12 07:20:17;;;;;;;27.77;13.80;;;-0.70;99.90;;;;;;5105496;28;20735;-63
2022/01/12 07:22:43;;;;;;;22.30;12.00;;;-0.80;99.90;;;;;;5105036;28;20386;-63
2022/01/12 07:25:09;;;;;;;21.67;12.07;;;-0.90;99.90;;;;;;5105709;28;20436;-63
2022/01/12 07:27:35;;;;;;;19.80;11.82;;;-0.90;99.90;;;;;;5095821;28;20378;-58
2022/01/12 07:30:01;;;;;;;25.02;13.52;;;-0.90;99.90;;;;;;5092436;28;20382;-63
2022/01/12 07:32:28;;;;;;;23.73;13.32;;;-0.90;99.90;;;;;;5092107;28;20366;-63
2022/01/12 07:34:53;;;;;;;25.05;13.15;;;-0.80;99.90;;;;;;5091301;28;20462;-63
2022/01/12 07:37:19;;;;;;;20.20;12.73;;;-0.80;99.90;;;;;;5090875;28;20472;-63
2022/01/12 07:39:45;;;;;;;25.47;13.17;;;-0.70;99.90;;;;;;5091365;28;20472;-62
2022/01/12 07:42:11;;;;;;;23.85;13.32;;;-0.60;99.90;;;;;;5091822;28;20399;-62
2022/01/12 07:44:38;;;;;;;22.60;12.13;;;-0.50;99.90;;;;;;5090839;28;20838;-62
2022/01/12 07:47:04;;;;;;;23.80;13.68;;;-0.30;99.90;;;;;;5097563;28;20393;-62
2022/01/12 07:49:31;;;;;;;25.05;14.20;;;-0.20;99.90;;;;;;5110481;27;20381;-61
2022/01/12 07:51:57;;;;;;;31.55;15.68;;;-0.10;99.90;;;;;;5110646;28;20376;-63
2022/01/12 07:54:23;;;;;;;21.95;13.35;;;0.10;99.90;;;;;;5111734;28;20375;-62
2022/01/12 07:56:54;;;;;;;26.10;14.40;;;0.60;99.90;;;;;;5110919;28;20408;-62
2022/01/12 07:59:20;;;;;;;23.40;12.98;;;0.40;99.90;;;;;;5099601;28;20386;-62
2022/01/12 08:01:46;;;;;;;22.75;12.65;;;0.60;99.90;;;;;;5090475;28;20904;-62
2022/01/12 08:04:11;;;;;;;24.93;13.97;;;0.70;99.90;;;;;;5090649;28;20435;-62
2022/01/12 08:06:37;;;;;;;53.78;21.20;;;0.80;99.90;;;;;;5089397;28;20431;-61
2022/01/12 08:09:07;;;;;;;29.57;16.33;;;0.80;99.90;;;;;;5091288;28;20374;-60
2022/01/12 08:11:33;;;;;;;26.48;14.90;;;1.00;99.90;;;;;;5090737;28;20505;-58
2022/01/12 08:13:59;;;;;;;24.80;14.20;;;1.30;99.90;;;;;;5090516;28;20450;-62
2022/01/12 08:16:25;;;;;;;23.37;13.07;;;1.50;99.90;;;;;;5090946;28;20505;-62
2022/01/12 08:18:50;;;;;;;23.10;13.40;;;1.60;99.90;;;;;;5090677;28;20381;-62
2022/01/12 08:21:16;;;;;;;18.37;12.10;;;3.30;99.90;;;;;;5091165;28;20374;-63
2022/01/12 08:23:42;;;;;;;22.15;13.30;;;1.90;99.90;;;;;;5090694;28;20414;-63
2022/01/12 08:26:07;;;;;;;20.80;12.43;;;2.40;99.90;;;;;;5091298;28;20406;-63
2022/01/12 08:28:33;;;;;;;22.50;12.93;;;3.10;99.90;;;;;;5090745;28;20374;-57
2022/01/12 08:30:59;;;;;;;22.83;12.48;;;2.20;99.90;;;;;;5090948;28;20374;-62
2022/01/12 08:33:26;;;;;;;22.40;13.30;;;2.30;99.90;;;;;;5091119;28;20386;-64
2022/01/12 08:35:52;;;;;;;23.70;13.07;;;2.20;99.90;;;;;;5090374;28;20402;-63
2022/01/12 08:38:17;;;;;;;23.65;12.50;;;1.90;99.90;;;;;;5090131;28;20486;-63
2022/01/12 08:40:43;;;;;;;23.98;13.40;;;1.80;99.90;;;;;;5072107;28;20378;-63
2022/01/12 08:43:09;;;;;;;24.42;13.30;;;1.70;99.90;;;;;;5090804;28;20370;-63
2022/01/12 08:45:35;;;;;;;23.42;13.68;;;1.60;99.90;;;;;;5090555;28;20898;-58
2022/01/12 08:48:00;;;;;;;21.23;12.80;;;1.60;99.90;;;;;;5090216;28;20462;-62
2022/01/12 08:50:26;;;;;;;27.70;14.77;;;2.90;99.90;;;;;;5091087;28;20744;-62
2022/01/12 08:52:52;;;;;;;26.83;13.33;;;2.30;99.90;;;;;;5090059;28;20808;-63
2022/01/12 08:55:21;;;;;;;22.13;12.37;;;3.30;99.90;;;;;;5090652;28;20417;-63
2022/01/12 08:57:47;;;;;;;23.23;12.82;;;4.00;99.90;;;;;;5089941;28;20378;-63
2022/01/12 09:00:14;;;;;;;22.50;12.55;;;4.90;99.90;;;;;;5089215;28;20400;-62
2022/01/12 09:02:40;;;;;;;23.67;12.80;;;4.90;99.90;;;;;;5089839;28;20416;-63
2022/01/12 09:05:06;;;;;;;19.83;12.13;;;4.70;99.90;;;;;;5090640;28;20484;-63
2022/01/12 09:07:33;;;;;;;21.35;12.68;;;4.30;99.90;;;;;;5090558;28;20461;-64
2022/01/12 09:10:01;;;;;;;20.70;12.13;;;4.30;99.90;;;;;;5089987;28;20409;-68
2022/01/12 09:12:27;;;;;;;20.88;12.52;;;4.50;99.90;;;;;;5090302;28;20477;-65
2022/01/12 09:14:53;;;;;;;21.98;12.52;;;4.90;99.90;;;;;;5089216;28;21428;-64
2022/01/12 09:17:21;;;;;;;22.98;12.85;;;5.30;99.90;;;;;;5089848;28;20831;-64
2022/01/12 09:19:47;;;;;;;22.73;12.90;;;5.90;99.90;;;;;;5088679;28;20457;-64
2022/01/12 09:22:14;;;;;;;22.38;12.40;;;6.90;99.90;;;;;;5090296;28;20382;-64
2022/01/12 09:24:42;;;;;;;23.90;13.13;;;7.30;99.90;;;;;;5089678;28;20465;-64
2022/01/12 09:27:08;;;;;;;20.50;12.43;;;7.40;99.90;;;;;;5090247;28;20378;-64
2022/01/12 09:29:34;;;;;;;22.23;12.88;;;7.70;99.90;;;;;;5090136;28;20398;-59
2022/01/12 09:32:01;;;;;;;22.38;13.07;;;8.70;99.90;;;;;;5089648;28;20425;-64
2022/01/12 09:34:27;;;;;;;19.80;12.73;;;9.70;99.70;;;;;;5089947;28;20921;-65
2022/01/12 09:36:52;;;;;;;20.65;12.38;;;10.30;96.80;;;;;;5089176;28;20409;-64
2022/01/12 09:39:18;;;;;;;22.30;13.55;;;10.40;94.80;;;;;;5089582;28;20378;-65
2022/01/12 09:41:44;;;;;;;22.90;13.20;;;10.20;93.30;;;;;;5089022;28;20378;-64
2022/01/12 09:44:11;;;;;;;21.25;11.93;;;9.90;94.90;;;;;;5089780;28;20382;-64
2022/01/12 09:46:37;;;;;;;20.50;13.00;;;9.70;95.20;;;;;;5088763;28;20440;-58
2022/01/12 09:49:06;;;;;;;21.27;13.80;;;9.90;93.40;;;;;;5090068;28;20839;-64
2022/01/12 09:51:32;;;;;;;23.08;13.73;;;9.90;93.30;;;;;;5089581;28;20388;-64
2022/01/12 09:53:58;;;;;;;20.50;13.68;;;10.30;91.40;;;;;;5088718;28;20743;-64
2022/01/12 09:56:29;;;;;;;23.30;13.03;;;10.00;91.50;;;;;;5089699;28;20408;-63
2022/01/12 09:58:56;;;;;;;21.53;12.87;;;9.70;93.70;;;;;;5088967;28;20382;-60
2022/01/12 10:01:34;;;;;;;22.00;13.60;;;10.30;92.30;;;;;;5089667;28;20848;-62
2022/01/12 10:04:07;;;;;;;22.13;14.00;;;10.70;91.30;;;;;;5089140;28;20385;-64
2022/01/12 10:06:42;;;;;;;21.13;12.60;;;10.80;90.10;;;;;;5089647;28;20862;-64
2022/01/12 10:09:08;;;;;;;20.13;13.27;;;11.10;89.50;;;;;;5089405;28;20386;-64
2022/01/12 10:11:38;;;;;;;19.80;13.10;;;11.30;86.70;;;;;;5089170;28;20382;-59
2022/01/12 10:14:06;;;;;;;20.77;13.55;;;11.40;85.00;;;;;;5089156;28;20469;-64
2022/01/12 10:16:31;;;;;;;20.88;13.23;;;12.20;83.40;;;;;;5089406;28;20433;-64
2022/01/12 10:19:00;;;;;;;21.30;13.20;;;12.70;80.70;;;;;;5089075;28;21136;-63
2022/01/12 10:21:32;;;;;;;18.95;13.00;;;11.80;79.80;;;;;;5089252;28;20374;-63
2022/01/12 10:23:59;;;;;;;24.60;13.57;;;11.20;83.00;;;;;;5088314;28;21031;-62
2022/01/12 10:26:43;;;;;;;21.83;13.45;;;11.00;82.70;;;;;;5089099;28;20382;-63
2022/01/12 10:29:18;;;;;;;21.88;13.68;;;10.40;85.20;;;;;;5089643;28;20523;-62
2022/01/12 10:31:55;;;;;;;19.95;13.38;;;10.10;86.10;;;;;;5088849;28;20370;-63
2022/01/12 10:34:30;;;;;;;23.58;13.73;;;10.40;85.10;;;;;;5089477;28;20379;-63
2022/01/12 10:36:57;;;;;;;20.05;13.50;;;11.40;81.90;;;;;;5088775;28;20406;-63
2022/01/12 10:39:26;;;;;;;20.35;13.63;;;11.40;81.50;;;;;;5089166;28;20534;-62
2022/01/12 10:41:52;;;;;;;20.35;13.57;;;11.70;80.20;;;;;;5088489;28;20378;-62
2022/01/12 10:44:23;;;;;;;28.77;16.73;;;11.50;78.80;;;;;;5089540;28;20415;-62
2022/01/12 10:46:50;;;;;;;30.77;18.45;;;11.40;79.60;;;;;;5088599;28;20570;-62
2022/01/12 10:49:21;;;;;;;29.52;18.50;;;12.00;78.50;;;;;;5089168;28;20751;-63
2022/01/12 10:51:56;;;;;;;24.75;13.82;;;11.70;78.00;;;;;;5088427;28;20832;-63
2022/01/12 10:54:22;;;;;;;20.83;13.43;;;11.80;77.80;;;;;;5087265;28;20378;-62
2022/01/12 10:56:48;;;;;;;20.80;12.88;;;11.50;77.20;;;;;;5088289;28;20425;-62
2022/01/12 10:59:18;;;;;;;22.08;13.57;;;11.50;79.90;;;;;;5089403;28;20375;-63
2022/01/12 11:01:44;;;;;;;22.27;13.57;;;12.00;77.00;;;;;;5088671;28;20405;-63
2022/01/12 11:04:11;;;;;;;21.57;15.47;;;11.90;77.00;;;;;;5092785;28;21143;-63
2022/01/12 11:06:37;;;;;;;20.63;13.23;;;9.60;80.80;;;;;;5092649;28;20374;-58
2022/01/12 11:09:04;;;;;;;19.80;11.82;;;9.30;83.80;;;;;;5092677;28;20724;-63
2022/01/12 11:11:30;;;;;;;19.05;11.82;;;9.80;83.40;;;;;;5091997;28;20931;-63
2022/01/12 11:13:56;;;;;;;18.95;12.32;;;10.20;81.90;;;;;;5091683;28;20465;-62
2022/01/12 11:16:23;;;;;;;20.60;13.35;;;9.80;83.10;;;;;;5092532;28;20414;-63
2022/01/12 11:18:50;;;;;;;18.55;11.88;;;10.10;83.50;;;;;;5091843;28;20385;-63
2022/01/12 11:21:25;;;;;;;20.92;13.00;;;10.30;81.40;;;;;;5092585;28;20435;-63
2022/01/12 11:23:56;;;;;;;21.05;11.85;;;10.50;81.40;;;;;;5091000;28;20390;-63
2022/01/12 11:26:28;;;;;;;19.70;12.40;;;10.40;78.90;;;;;;5092379;28;20387;-63
2022/01/12 11:28:54;;;;;;;17.67;11.70;;;8.90;82.20;;;;;;5091772;28;20378;-62
2022/01/12 11:31:30;;;;;;;19.85;12.60;;;9.00;84.00;;;;;;5092489;28;20386;-62
2022/01/12 11:33:56;;;;;;;20.27;12.65;;;9.40;86.30;;;;;;5091766;28;20735;-64
2022/01/12 11:36:34;;;;;;;20.05;11.90;;;9.20;86.30;;;;;;5092230;28;20406;-62
2022/01/12 11:39:06;;;;;;;19.30;11.75;;;8.70;86.90;;;;;;5091413;28;20390;-62
2022/01/12 11:41:34;;;;;;;19.63;12.15;;;7.70;90.20;;;;;;5090552;28;20386;-61
2022/01/12 11:44:16;;;;;;;20.80;12.40;;;8.00;93.80;;;;;;5090143;28;20382;-62
2022/01/12 11:46:49;;;;;;;23.33;12.63;;;6.20;93.40;;;;;;5090997;28;20433;-62
2022/01/12 11:49:29;;;;;;;21.90;12.60;;;5.90;96.10;;;;;;5092037;28;20892;-62
2022/01/12 11:51:56;;;;;;;19.40;11.17;;;5.60;95.60;;;;;;5091135;28;20363;-62
2022/01/12 11:54:33;;;;;;;19.90;12.00;;;5.50;96.20;;;;;;5091636;28;20374;-62
2022/01/12 11:57:07;;;;;;;19.30;10.60;;;5.50;96.90;;;;;;5090615;28;21016;-62
2022/01/12 11:59:57;;;;;;;18.40;9.80;;;5.40;96.30;;;;;;5090593;28;20377;-61
2022/01/12 12:02:51;;;;;;;18.08;10.88;;;5.20;98.00;;;;;;5091275;28;20445;-62
2022/01/12 12:05:44;;;;;;;18.73;10.70;;;5.10;97.60;;;;;;5091299;28;20389;-62
2022/01/12 12:08:10;;;;;;;18.58;10.70;;;6.10;97.80;;;;;;5089314;28;20413;-62
2022/01/12 12:10:38;;;;;;;18.42;10.35;;;5.10;97.70;;;;;;5091514;28;20432;-60
2022/01/12 12:13:05;;;;;;;19.70;11.50;;;5.10;98.00;;;;;;5091561;28;20382;-62
2022/01/12 12:15:31;;;;;;;18.80;10.57;;;5.70;98.30;;;;;;5091081;28;20516;-62
2022/01/12 12:18:00;;;;;;;21.15;11.15;;;5.10;98.20;;;;;;5094729;28;20377;-61
2022/01/12 12:20:26;;;;;;;20.67;11.57;;;5.00;98.70;;;;;;5093211;28;20908;-62
2022/01/12 12:22:51;;;;;;;20.60;12.35;;;5.20;99.30;;;;;;5094973;28;20422;-63
2022/01/12 12:25:25;;;;;;;22.35;12.45;;;5.30;99.60;;;;;;5091728;28;20381;-62
2022/01/12 12:27:58;;;;;;;19.30;11.18;;;5.10;98.70;;;;;;5090574;28;20382;-62
2022/01/12 12:30:26;;;;;;;20.00;10.80;;;5.20;99.90;;;;;;5091383;28;20382;-63
2022/01/12 12:33:02;;;;;;;19.98;11.82;;;5.20;99.50;;;;;;5090263;28;20385;-62
2022/01/12 12:35:46;;;;;;;22.30;12.10;;;5.00;99.90;;;;;;5090500;28;20414;-63
2022/01/12 12:38:14;;;;;;;21.27;12.10;;;4.90;99.90;;;;;;5091200;28;20495;-64
2022/01/12 12:40:45;;;;;;;20.50;11.05;;;5.00;99.90;;;;;;5091084;28;20383;-58
2022/01/12 12:43:17;;;;;;;17.87;10.63;;;5.20;99.90;;;;;;5090737;28;20413;-62
2022/01/12 12:45:46;;;;;;;17.73;9.93;;;5.10;99.90;;;;;;5089539;28;20484;-59
2022/01/12 12:48:15;;;;;;;17.23;10.25;;;5.30;99.90;;;;;;5090635;28;20378;-62
2022/01/12 12:50:42;;;;;;;18.67;11.13;;;5.30;99.90;;;;;;5090317;28;20378;-58
2022/01/12 12:53:08;;;;;;;18.58;10.88;;;5.10;99.90;;;;;;5090377;28;20378;-62
2022/01/12 12:55:38;;;;;;;20.10;11.52;;;5.10;99.90;;;;;;5090496;28;20410;-62
2022/01/12 12:58:06;;;;;;;20.90;11.07;;;5.30;99.90;;;;;;5090040;28;20378;-62
2022/01/12 13:00:32;;;;;;;19.67;10.70;;;5.30;99.90;;;;;;5090591;28;20386;-62
2022/01/12 13:03:00;;;;;;;19.92;10.65;;;5.40;99.90;;;;;;5089618;28;20386;-62
2022/01/12 13:05:29;;;;;;;20.75;11.35;;;5.40;99.90;;;;;;5090701;28;20873;-61
2022/01/12 13:07:55;;;;;;;19.80;11.13;;;5.60;99.90;;;;;;5090122;28;20393;-62
2022/01/12 13:10:29;;;;;;;19.20;10.13;;;5.50;99.90;;;;;;5090377;28;20409;-63
2022/01/12 13:13:01;;;;;;;19.17;10.50;;;5.50;99.40;;;;;;5089535;28;20377;-61
2022/01/12 13:15:38;;;;;;;19.63;10.27;;;5.40;99.90;;;;;;5090054;28;20447;-63
2022/01/12 13:18:15;;;;;;;18.20;10.85;;;5.40;99.60;;;;;;5089567;28;20950;-63
2022/01/12 13:23:31;;;;;;;18.52;10.57;;;5.20;99.90;;;;;;5089629;28;20373;-64
2022/01/12 13:26:04;;;;;;;19.80;10.57;;;4.90;99.90;;;;;;5088906;28;20512;-61
2022/01/12 13:28:30;;;;;;;18.38;10.10;;;4.90;99.90;;;;;;5090295;28;20381;-61
2022/01/12 13:30:58;;;;;;;18.98;10.85;;;4.90;99.90;;;;;;5089168;28;20378;-61
2022/01/12 13:33:30;;;;;;;18.70;11.13;;;5.00;99.90;;;;;;5088890;28;20382;-60
2022/01/12 13:35:58;;;;;;;21.00;11.00;;;4.80;99.90;;;;;;5088950;28;20409;-60
2022/01/12 13:38:30;;;;;;;19.00;11.00;;;4.80;99.90;;;;;;5089945;28;20370;-60
2022/01/12 13:41:06;;;;;;;18.88;11.07;;;6.10;99.90;;;;;;5088754;28;20705;-60
2022/01/12 13:43:31;;;;;;;21.38;11.65;;;4.70;99.90;;;;;;5089890;28;20508;-61
2022/01/12 13:46:12;;;;;;;21.43;12.30;;;4.60;99.90;;;;;;5088878;28;20407;-60
2022/01/12 13:48:41;;;;;;;17.92;10.13;;;4.70;99.90;;;;;;5070297;28;20382;-60
2022/01/12 13:51:07;;;;;;;19.23;11.10;;;4.80;99.90;;;;;;5068649;28;20384;-60
2022/01/12 13:53:39;;;;;;;20.27;11.57;;;5.70;99.90;;;;;;5069235;28;20413;-61
2022/01/12 13:56:06;;;;;;;26.40;15.05;;;4.70;99.90;;;;;;5067989;28;20896;-61